Saddle River, New Jersey
Current Conditions -  °F | °C
As of 6:51 AM on Tuesday 27 Jan 2015 (Local Time) from KTEB Reporting Station
Light Snow Light Snow  
Wind Chill: -13°   Ceiling: 7500
Heat Index: -6°   Visibility: 10mi
Dew Point: -11°   Wind: 15mph
Humidity: 66%   Direction: 350°N
Pressure: 29.68"   Gusts: 24mph
Location:  41.03°N, 74.1°W
Report Text: KTEB 271151Z 35013G21KT 10SM -SN OVC075 M06/M11 A2968 RMK AO2 PK WND 34026/1134 SLP049 4/076 931003 P0001 60014 70030 T10561111 11050 21067 53002
Loading
Personal Weather Stations






























Interactive Weather Map New forecast layout! Learn more

10-Day Weather Forecast

Advertisements
Track Severe Weather on mobile